Time;durP1;ratioP1;P1;durP2;ratioP2;P2;SDS_P1;SDS_P2;PMS_P1;PMS_P2;Temp;Humidity;BMP_temperature;BMP_pressure;BME280_temperature;BME280_humidity;BME280_pressure;Samples;Min_cycle;Max_cycle;Signal;HPM_P1;HPM_P2
2022/01/12 00:00:27;;;;;;;13.00;7.75;;;;;;;;;;6215876;23;20081;-79
2022/01/12 00:02:53;;;;;;;9.90;6.18;;;;;;;;;;6215909;23;20055;-78
2022/01/12 00:05:20;;;;;;;11.02;7.10;;;;;;;;;;6216075;23;20004;-80
2022/01/12 00:07:49;;;;;;;10.23;7.05;;;;;;;;;;6215896;23;20335;-78
2022/01/12 00:13:00;;;;;;;;;;;;;;;;;;6216962;23;20012;-81
2022/01/12 00:15:26;;;;;;;13.27;7.93;;;;;;;;;;6215978;23;19899;-79
2022/01/12 00:17:52;;;;;;;10.15;6.80;;;;;;;;;;6215904;23;20012;-80
2022/01/12 00:20:19;;;;;;;9.35;6.80;;;;;;;;;;6215931;23;20336;-81
2022/01/12 00:22:45;;;;;;;8.32;5.90;;;;;;;;;;6214407;23;20009;-80
2022/01/12 00:33:16;;;;;;;9.88;5.68;;;;;;;;;;6216080;23;20062;-79
2022/01/12 00:35:44;;;;;;;12.52;7.15;;;;;;;;;;6215737;23;20005;-78
2022/01/12 00:38:10;;;;;;;9.40;6.03;;;;;;;;;;6215714;23;20004;-76
2022/01/12 00:40:39;;;;;;;12.07;7.47;;;;;;;;;;6215537;23;20434;-82
2022/01/12 00:43:05;;;;;;;8.82;6.25;;;;;;;;;;6215632;23;20004;-79
2022/01/12 00:45:32;;;;;;;7.95;5.75;;;;;;;;;;6215945;23;20036;-82
2022/01/12 00:47:58;;;;;;;15.15;6.53;;;;;;;;;;6216114;23;20009;-80
2022/01/12 00:50:24;;;;;;;11.45;6.35;;;;;;;;;;6215614;23;20068;-78
2022/01/12 00:52:58;;;;;;;9.05;5.97;;;;;;;;;;6215672;23;20001;-80
2022/01/12 00:55:36;;;;;;;8.85;6.45;;;;;;;;;;6215749;23;20005;-77
2022/01/12 00:58:19;;;;;;;10.65;7.00;;;;;;;;;;6213886;23;20007;-79
2022/01/12 01:00:55;;;;;;;9.43;6.40;;;;;;;;;;6215653;23;19997;-85
2022/01/12 01:03:30;;;;;;;10.18;6.15;;;;;;;;;;6216091;23;20429;-79
2022/01/12 01:06:06;;;;;;;10.15;6.97;;;;;;;;;;6217345;23;20080;-79
2022/01/12 01:08:42;;;;;;;9.93;6.03;;;;;;;;;;6217286;23;20007;-78
2022/01/12 01:11:08;;;;;;;10.75;6.70;;;;;;;;;;6217329;23;19997;-78
2022/01/12 01:13:44;;;;;;;9.60;5.97;;;;;;;;;;6217356;23;20000;-76
2022/01/12 01:16:28;;;;;;;9.93;5.95;;;;;;;;;;6217406;23;20008;-85
2022/01/12 01:27:17;;;;;;;12.23;7.40;;;;;;;;;;6217446;23;20459;-80
2022/01/12 01:29:43;;;;;;;10.25;6.55;;;;;;;;;;6217168;23;20008;-80
2022/01/12 01:32:11;;;;;;;11.32;7.43;;;;;;;;;;6217349;23;20480;-82
2022/01/12 01:34:43;;;;;;;12.07;8.68;;;;;;;;;;6217067;23;20008;-81
2022/01/12 01:37:09;;;;;;;10.05;6.13;;;;;;;;;;6217070;23;20008;-77
2022/01/12 01:39:36;;;;;;;11.80;6.43;;;;;;;;;;6216992;23;20005;-79
2022/01/12 01:42:15;;;;;;;10.18;6.18;;;;;;;;;;6216985;23;20042;-77
2022/01/12 01:55:26;;;;;;;11.13;7.10;;;;;;;;;;6217024;23;20048;-82
2022/01/12 01:57:53;;;;;;;10.75;6.25;;;;;;;;;;6216861;23;20008;-80
2022/01/12 02:00:20;;;;;;;11.50;6.72;;;;;;;;;;6216817;23;20028;-78
2022/01/12 02:02:47;;;;;;;9.48;6.30;;;;;;;;;;6216847;23;20012;-79
2022/01/12 02:05:13;;;;;;;7.88;5.53;;;;;;;;;;6216990;23;20039;-79
2022/01/12 02:07:40;;;;;;;11.50;7.50;;;;;;;;;;6216786;23;20006;-79
2022/01/12 02:10:06;;;;;;;10.65;6.15;;;;;;;;;;6216803;23;20076;-81
2022/01/12 02:12:35;;;;;;;11.00;5.80;;;;;;;;;;6216842;23;20417;-81
2022/01/12 02:15:20;;;;;;;10.15;7.22;;;;;;;;;;6216582;23;19999;-82
2022/01/12 02:40:14;;;;;;;11.05;6.65;;;;;;;;;;6216424;22;20027;-81
2022/01/12 02:42:44;;;;;;;11.05;7.38;;;;;;;;;;6216420;23;20119;-79
2022/01/12 02:50:57;;;;;;;13.25;8.05;;;;;;;;;;6205377;23;20032;-78
2022/01/12 02:56:40;;;;;;;10.73;7.13;;;;;;;;;;6216450;23;20015;-77
2022/01/12 02:59:09;;;;;;;11.35;7.38;;;;;;;;;;6191061;23;20075;-83
2022/01/12 03:07:15;;;;;;;12.45;7.65;;;;;;;;;;6216304;23;20051;-78
2022/01/12 03:09:41;;;;;;;13.50;8.00;;;;;;;;;;6216406;23;20039;-79
2022/01/12 03:12:08;;;;;;;11.45;7.28;;;;;;;;;;6216274;23;20028;-77
2022/01/12 03:14:34;;;;;;;12.15;7.55;;;;;;;;;;6216515;23;20321;-78
2022/01/12 03:17:00;;;;;;;10.60;5.65;;;;;;;;;;6216313;23;19997;-79
2022/01/12 03:19:29;;;;;;;12.02;8.02;;;;;;;;;;6216210;23;20393;-79
2022/01/12 03:21:55;;;;;;;10.75;6.82;;;;;;;;;;6216212;23;20001;-80
2022/01/12 03:24:24;;;;;;;14.20;8.10;;;;;;;;;;6216188;23;20008;-78
2022/01/12 03:26:50;;;;;;;11.45;7.50;;;;;;;;;;6215676;23;20314;-78
2022/01/12 03:29:17;;;;;;;13.85;8.80;;;;;;;;;;6216264;23;20096;-80
2022/01/12 03:31:43;;;;;;;9.80;6.60;;;;;;;;;;6189720;23;20012;-81
2022/01/12 03:34:22;;;;;;;12.20;7.55;;;;;;;;;;6216740;23;20004;-79
2022/01/12 03:39:33;;;;;;;11.27;6.93;;;;;;;;;;6216021;23;20071;-79
2022/01/12 03:41:59;;;;;;;12.00;7.07;;;;;;;;;;6215879;23;20009;-78
2022/01/12 03:44:25;;;;;;;13.60;7.70;;;;;;;;;;6216076;23;19997;-78
2022/01/12 03:46:52;;;;;;;12.13;7.05;;;;;;;;;;6216038;23;20001;-80
2022/01/12 03:49:19;;;;;;;11.68;8.07;;;;;;;;;;6215811;23;20001;-78
2022/01/12 03:51:46;;;;;;;8.52;5.30;;;;;;;;;;6215791;23;20447;-79
2022/01/12 03:54:12;;;;;;;10.77;5.82;;;;;;;;;;6216073;23;20001;-79
2022/01/12 03:56:38;;;;;;;11.18;6.63;;;;;;;;;;6214385;23;20074;-79
2022/01/12 03:59:09;;;;;;;12.63;8.18;;;;;;;;;;6216003;23;20009;-77
2022/01/12 04:01:35;;;;;;;11.48;7.78;;;;;;;;;;6216135;23;20455;-80
2022/01/12 04:04:06;;;;;;;12.43;8.77;;;;;;;;;;6213786;23;20008;-77
2022/01/12 04:09:16;;;;;;;;;;;;;;;;;;6216234;23;20391;-80
2022/01/12 04:11:43;;;;;;;12.05;7.30;;;;;;;;;;6216177;23;19899;-80
2022/01/12 04:14:13;;;;;;;12.20;5.85;;;;;;;;;;6215759;23;19997;-80
2022/01/12 04:16:39;;;;;;;11.80;7.13;;;;;;;;;;6215940;23;20532;-78
2022/01/12 04:19:05;;;;;;;11.43;8.00;;;;;;;;;;6214410;23;20004;-78
2022/01/12 04:21:35;;;;;;;10.02;6.18;;;;;;;;;;6215776;23;20507;-78
2022/01/12 04:24:02;;;;;;;13.38;7.22;;;;;;;;;;6214375;23;20008;-78
2022/01/12 04:26:30;;;;;;;11.65;7.55;;;;;;;;;;6215728;23;20012;-78
2022/01/12 04:28:56;;;;;;;10.13;6.43;;;;;;;;;;6215653;23;20072;-78
2022/01/12 04:31:23;;;;;;;13.48;8.52;;;;;;;;;;6215633;23;20001;-79
2022/01/12 04:33:51;;;;;;;11.13;6.82;;;;;;;;;;6216275;23;20008;-78
2022/01/12 04:36:17;;;;;;;10.85;7.45;;;;;;;;;;6215607;23;20068;-81
2022/01/12 04:38:46;;;;;;;9.00;5.93;;;;;;;;;;6217191;23;20011;-78
2022/01/12 04:41:13;;;;;;;11.98;7.07;;;;;;;;;;6217614;23;20383;-79
2022/01/12 04:43:41;;;;;;;8.07;5.75;;;;;;;;;;6217575;23;19997;-80
2022/01/12 04:48:48;;;;;;;8.57;5.88;;;;;;;;;;6227406;23;20020;-77
2022/01/12 04:51:14;;;;;;;9.75;6.25;;;;;;;;;;6217389;23;20001;-81
2022/01/12 04:53:43;;;;;;;13.27;7.00;;;;;;;;;;6217583;23;20001;-79
2022/01/12 04:56:09;;;;;;;10.82;6.78;;;;;;;;;;6217582;23;20305;-79
2022/01/12 04:58:36;;;;;;;16.10;8.45;;;;;;;;;;6216652;23;20008;-79
2022/01/12 05:01:09;;;;;;;13.50;7.25;;;;;;;;;;6215989;23;20011;-78
2022/01/12 05:09:08;;;;;;;12.25;6.18;;;;;;;;;;6227735;23;20428;-78
2022/01/12 05:14:21;;;;;;;13.80;7.20;;;;;;;;;;6217255;23;20028;-79
2022/01/12 05:16:49;;;;;;;12.27;8.07;;;;;;;;;;6217233;23;20380;-81
2022/01/12 05:19:21;;;;;;;14.95;8.68;;;;;;;;;;6217059;23;20068;-77
2022/01/12 05:24:54;;;;;;;13.15;8.10;;;;;;;;;;6206179;23;20464;-77
2022/01/12 05:27:29;;;;;;;12.27;7.10;;;;;;;;;;6215681;23;20016;-80
2022/01/12 05:29:56;;;;;;;11.88;6.90;;;;;;;;;;6217165;23;20355;-79
2022/01/12 05:32:26;;;;;;;12.45;8.48;;;;;;;;;;6217190;23;20012;-77
2022/01/12 05:34:57;;;;;;;10.70;6.57;;;;;;;;;;6217244;23;20005;-79
2022/01/12 05:37:47;;;;;;;14.15;8.98;;;;;;;;;;6216932;23;20007;-78
2022/01/12 05:40:20;;;;;;;13.93;8.10;;;;;;;;;;6216863;23;20059;-80
2022/01/12 05:42:52;;;;;;;12.57;7.35;;;;;;;;;;6217151;23;20004;-82
2022/01/12 05:45:21;;;;;;;11.10;6.65;;;;;;;;;;6216899;23;19997;-80
2022/01/12 05:50:17;;;;;;;11.93;7.70;;;;;;;;;;6226889;23;20066;-79
2022/01/12 05:52:50;;;;;;;12.65;7.22;;;;;;;;;;6216995;23;20015;-79
2022/01/12 05:55:19;;;;;;;11.18;6.15;;;;;;;;;;6216783;23;20075;-79
2022/01/12 05:57:48;;;;;;;9.90;6.95;;;;;;;;;;6216822;23;20072;-81
2022/01/12 06:00:15;;;;;;;16.02;9.25;;;;;;;;;;6216878;23;20080;-76
2022/01/12 06:02:55;;;;;;;;;;;;;;;;;;;;;
2022/01/12 06:05:25;;;;;;;12.75;6.72;;;;;;;;;;6211917;23;20084;-78
2022/01/12 06:07:59;;;;;;;13.07;7.43;;;;;;;;;;6216853;23;20005;-75
2022/01/12 06:10:25;;;;;;;11.00;6.82;;;;;;;;;;6216431;23;19993;-78
2022/01/12 06:12:52;;;;;;;11.85;6.25;;;;;;;;;;6216586;23;20001;-76
2022/01/12 06:15:22;;;;;;;14.27;7.82;;;;;;;;;;6216578;23;19997;-79
2022/01/12 06:17:58;;;;;;;14.20;7.82;;;;;;;;;;6216674;23;20007;-79
2022/01/12 06:20:25;;;;;;;12.77;7.90;;;;;;;;;;6216288;23;19997;-79
2022/01/12 06:22:53;;;;;;;11.23;6.85;;;;;;;;;;6216548;23;20001;-77
2022/01/12 06:25:19;;;;;;;11.85;7.50;;;;;;;;;;6215986;23;20455;-81
2022/01/12 06:27:55;;;;;;;13.57;7.85;;;;;;;;;;6216203;23;20001;-79
2022/01/12 06:33:08;;;;;;;14.40;8.95;;;;;;;;;;6214303;23;20066;-77
2022/01/12 06:35:34;;;;;;;13.02;7.20;;;;;;;;;;6213724;23;20016;-78
2022/01/12 06:38:00;;;;;;;11.38;6.32;;;;;;;;;;6212145;23;20004;-77
2022/01/12 06:40:26;;;;;;;13.43;8.77;;;;;;;;;;6213552;23;20441;-78
2022/01/12 06:42:55;;;;;;;15.55;8.95;;;;;;;;;;6213695;23;20424;-78
2022/01/12 06:45:21;;;;;;;9.65;5.60;;;;;;;;;;6212915;23;20004;-79
2022/01/12 06:47:47;;;;;;;10.13;6.22;;;;;;;;;;6212741;23;20420;-79
2022/01/12 06:50:16;;;;;;;9.57;6.22;;;;;;;;;;6212584;23;20000;-78
2022/01/12 06:52:46;;;;;;;11.77;7.38;;;;;;;;;;6212614;23;20004;-79
2022/01/12 06:55:18;;;;;;;12.07;6.90;;;;;;;;;;6213701;23;20016;-82
2022/01/12 06:57:47;;;;;;;10.63;6.65;;;;;;;;;;6213815;23;20001;-79
2022/01/12 07:00:16;;;;;;;13.63;7.95;;;;;;;;;;6187506;23;20127;-79
2022/01/12 07:02:44;;;;;;;11.80;7.75;;;;;;;;;;6187330;23;20004;-83
2022/01/12 07:10:47;;;;;;;15.65;10.18;;;;;;;;;;6213694;23;20079;-79
2022/01/12 07:13:13;;;;;;;10.25;6.20;;;;;;;;;;6211872;23;20081;-79
2022/01/12 07:15:42;;;;;;;14.60;8.95;;;;;;;;;;6213354;23;20380;-79
2022/01/12 07:18:21;;;;;;;;;;;;;;;;;;;;;
2022/01/12 07:20:52;;;;;;;15.63;9.30;;;;;;;;;;6213637;23;20391;-77
2022/01/12 07:23:37;;;;;;;;;;;;;;;;;;;;;
2022/01/12 07:26:04;;;;;;;15.75;9.13;;;;;;;;;;6136612;23;20404;-77
2022/01/12 07:28:30;;;;;;;16.55;9.75;;;;;;;;;;6213437;23;20063;-79
2022/01/12 07:30:59;;;;;;;11.07;6.65;;;;;;;;;;6213039;23;20482;-80
2022/01/12 07:33:28;;;;;;;14.38;7.70;;;;;;;;;;6212592;23;20031;-77
2022/01/12 07:38:46;;;;;;;12.63;7.95;;;;;;;;;;6213152;23;20391;-78
2022/01/12 07:41:12;;;;;;;13.73;8.35;;;;;;;;;;6213183;23;20063;-79
2022/01/12 07:43:38;;;;;;;12.07;6.75;;;;;;;;;;6213539;23;20055;-78
2022/01/12 07:46:06;;;;;;;16.55;9.95;;;;;;;;;;6213024;23;20000;-77
2022/01/12 07:48:50;;;;;;;13.07;6.88;;;;;;;;;;6213173;23;20009;-82
2022/01/12 07:51:16;;;;;;;14.68;7.97;;;;;;;;;;6213116;23;20054;-79
2022/01/12 07:53:44;;;;;;;13.00;8.32;;;;;;;;;;6213209;23;20001;-77
2022/01/12 07:56:11;;;;;;;12.20;7.10;;;;;;;;;;6212802;23;20000;-78
2022/01/12 07:58:37;;;;;;;12.18;7.38;;;;;;;;;;6212603;23;20008;-77
2022/01/12 08:01:07;;;;;;;11.73;6.78;;;;;;;;;;6212362;23;20028;-77
2022/01/12 08:03:36;;;;;;;11.52;7.70;;;;;;;;;;6211994;23;20017;-75
2022/01/12 08:06:06;;;;;;;14.98;7.72;;;;;;;;;;6213152;23;20036;-78
2022/01/12 08:08:35;;;;;;;12.93;7.80;;;;;;;;;;6211032;23;20043;-81
2022/01/12 08:11:01;;;;;;;14.98;8.98;;;;;;;;;;6213083;23;19996;-74
2022/01/12 08:13:34;;;;;;;11.45;6.53;;;;;;;;;;6214347;23;20417;-81
2022/01/12 08:16:00;;;;;;;14.55;9.23;;;;;;;;;;6214420;23;20075;-77
2022/01/12 08:18:26;;;;;;;16.92;8.77;;;;;;;;;;6214872;23;20016;-79
2022/01/12 08:20:55;;;;;;;10.07;5.88;;;;;;;;;;6213710;23;20475;-78
2022/01/12 08:23:21;;;;;;;13.13;7.55;;;;;;;;;;6215083;23;20413;-80
2022/01/12 08:25:51;;;;;;;11.52;7.10;;;;;;;;;;6214315;23;20066;-75
2022/01/12 08:28:17;;;;;;;10.52;6.28;;;;;;;;;;6215082;23;20000;-77
2022/01/12 08:30:43;;;;;;;11.13;7.75;;;;;;;;;;6187663;23;20018;-76
2022/01/12 08:33:12;;;;;;;13.38;8.07;;;;;;;;;;6219482;23;20004;-78
2022/01/12 08:35:39;;;;;;;12.68;8.20;;;;;;;;;;6214725;23;20000;-74
2022/01/12 08:38:05;;;;;;;7.90;5.15;;;;;;;;;;6214674;23;20004;-75
2022/01/12 08:40:37;;;;;;;11.95;8.10;;;;;;;;;;6216814;22;20045;-77
2022/01/12 08:43:04;;;;;;;9.48;6.25;;;;;;;;;;6243068;23;20020;-77
2022/01/12 08:45:30;;;;;;;12.15;6.78;;;;;;;;;;6244973;23;19996;-77
2022/01/12 08:47:56;;;;;;;10.90;6.55;;;;;;;;;;6217547;23;20014;-78
2022/01/12 08:50:28;;;;;;;12.50;6.97;;;;;;;;;;6244708;23;19996;-79
2022/01/12 08:52:56;;;;;;;14.82;7.28;;;;;;;;;;6245385;23;20027;-79
2022/01/12 08:55:25;;;;;;;11.93;6.90;;;;;;;;;;6245138;23;20004;-78
2022/01/12 08:57:58;;;;;;;10.45;6.55;;;;;;;;;;6245076;23;19996;-82
2022/01/12 09:00:31;;;;;;;14.77;8.75;;;;;;;;;;6245151;23;20030;-78
2022/01/12 09:02:58;;;;;;;11.60;7.07;;;;;;;;;;6245534;23;20000;-76
2022/01/12 09:05:26;;;;;;;13.23;6.95;;;;;;;;;;6244732;23;20000;-79
2022/01/12 09:07:55;;;;;;;8.68;4.95;;;;;;;;;;6244267;23;20027;-78
2022/01/12 09:10:22;;;;;;;10.32;6.43;;;;;;;;;;6245015;23;20301;-78
2022/01/12 09:12:54;;;;;;;11.35;6.97;;;;;;;;;;6217558;23;20004;-78
2022/01/12 09:15:25;;;;;;;15.20;8.73;;;;;;;;;;6217477;23;20087;-77
2022/01/12 09:18:30;;;;;;;12.68;7.40;;;;;;;;;;6242342;23;20008;-78
2022/01/12 09:20:58;;;;;;;13.55;7.82;;;;;;;;;;6244725;23;20123;-76
2022/01/12 09:23:29;;;;;;;10.68;7.03;;;;;;;;;;6244449;23;20000;-76
2022/01/12 09:26:03;;;;;;;10.98;6.38;;;;;;;;;;6244683;23;19996;-78
2022/01/12 09:28:48;;;;;;;10.20;6.85;;;;;;;;;;6242134;23;20036;-77
2022/01/12 09:31:35;;;;;;;12.90;6.47;;;;;;;;;;6244421;23;20059;-78
2022/01/12 09:34:06;;;;;;;11.05;5.80;;;;;;;;;;6244649;23;19999;-80
2022/01/12 09:36:33;;;;;;;11.60;6.22;;;;;;;;;;6244672;23;20098;-77
2022/01/12 09:39:06;;;;;;;12.43;6.80;;;;;;;;;;6244117;23;20411;-78
2022/01/12 09:41:35;;;;;;;10.32;6.70;;;;;;;;;;6222320;22;20012;-80
2022/01/12 09:44:04;;;;;;;11.23;7.05;;;;;;;;;;6213582;23;20083;-79
2022/01/12 09:46:32;;;;;;;12.38;7.30;;;;;;;;;;6213851;23;20000;-77
2022/01/12 09:49:06;;;;;;;10.73;6.25;;;;;;;;;;6214032;23;20094;-78
2022/01/12 09:51:32;;;;;;;9.55;6.32;;;;;;;;;;6214158;23;20428;-80
2022/01/12 09:53:58;;;;;;;12.27;7.07;;;;;;;;;;6213438;23;20012;-75
2022/01/12 09:56:31;;;;;;;8.88;5.85;;;;;;;;;;6211169;23;20012;-81
2022/01/12 09:58:59;;;;;;;10.18;6.65;;;;;;;;;;6213879;23;20005;-79
2022/01/12 10:01:27;;;;;;;10.85;5.97;;;;;;;;;;6214241;23;20000;-76
2022/01/12 10:03:53;;;;;;;9.98;5.97;;;;;;;;;;6213504;23;20004;-76
2022/01/12 10:06:19;;;;;;;10.57;6.10;;;;;;;;;;6213596;23;20005;-78
2022/01/12 10:08:46;;;;;;;10.60;6.07;;;;;;;;;;6213533;23;20007;-77
2022/01/12 10:11:15;;;;;;;11.52;6.75;;;;;;;;;;6213449;23;19997;-78
2022/01/12 10:13:43;;;;;;;11.18;6.43;;;;;;;;;;6215315;23;20001;-78
2022/01/12 10:16:17;;;;;;;12.70;6.68;;;;;;;;;;6213760;23;20136;-77
2022/01/12 10:18:49;;;;;;;12.27;7.85;;;;;;;;;;6213365;23;20050;-76
2022/01/12 10:21:30;;;;;;;10.93;6.10;;;;;;;;;;6213585;23;20428;-76
2022/01/12 10:24:04;;;;;;;16.85;10.00;;;;;;;;;;6213848;23;20009;-77
2022/01/12 10:26:41;;;;;;;7.55;5.00;;;;;;;;;;6214353;23;20012;-80
2022/01/12 10:29:21;;;;;;;12.80;7.88;;;;;;;;;;6213093;23;20322;-80
2022/01/12 10:31:55;;;;;;;10.00;5.28;;;;;;;;;;6211772;23;20001;-79
2022/01/12 10:34:33;;;;;;;11.53;6.03;;;;;;;;;;6213372;23;20114;-78
2022/01/12 10:37:18;;;;;;;12.20;6.82;;;;;;;;;;6212892;23;20290;-78
2022/01/12 10:39:44;;;;;;;;;;;;;;;;;;6214421;23;20052;-77
2022/01/12 10:42:11;;;;;;;12.32;8.43;;;;;;;;;;6212251;23;20236;-77
2022/01/12 10:44:56;;;;;;;12.93;7.05;;;;;;;;;;6213652;23;19997;-77
2022/01/12 10:47:22;;;;;;;;;;;;;;;;;;6213062;23;20050;-76
2022/01/12 10:49:54;;;;;;;13.30;6.80;;;;;;;;;;6213055;23;19904;-78
2022/01/12 10:52:28;;;;;;;9.63;5.30;;;;;;;;;;6211416;23;20051;-78
2022/01/12 10:55:15;;;;;;;9.95;5.97;;;;;;;;;;6211088;23;20017;-77
2022/01/12 10:57:44;;;;;;;11.93;7.38;;;;;;;;;;6213471;23;20005;-81
2022/01/12 11:00:19;;;;;;;8.20;5.07;;;;;;;;;;6212624;23;20332;-78
2022/01/12 11:02:56;;;;;;;13.73;7.43;;;;;;;;;;6215369;23;20035;-77
2022/01/12 11:05:23;;;;;;;9.55;6.38;;;;;;;;;;6213673;23;20009;-79
2022/01/12 11:07:50;;;;;;;11.02;6.28;;;;;;;;;;6211963;23;20094;-75
2022/01/12 11:10:16;;;;;;;13.38;7.88;;;;;;;;;;6212079;23;20001;-74
2022/01/12 11:12:43;;;;;;;11.00;6.10;;;;;;;;;;6213847;23;20007;-73
2022/01/12 11:15:13;;;;;;;13.82;6.53;;;;;;;;;;6186876;23;20080;-79
2022/01/12 11:17:45;;;;;;;8.65;5.75;;;;;;;;;;6211003;23;20008;-78
2022/01/12 11:23:00;;;;;;;10.52;6.07;;;;;;;;;;6124934;23;20327;-78
2022/01/12 11:25:29;;;;;;;9.35;5.68;;;;;;;;;;6213081;23;20063;-79
2022/01/12 11:28:11;;;;;;;11.48;6.40;;;;;;;;;;6213434;23;20016;-79
2022/01/12 11:30:40;;;;;;;12.02;6.03;;;;;;;;;;6213141;23;20069;-79
2022/01/12 11:33:16;;;;;;;11.82;5.78;;;;;;;;;;6212646;23;20004;-74
2022/01/12 11:35:54;;;;;;;;;;;;;;;;;;;;;
2022/01/12 11:38:25;;;;;;;14.27;8.90;;;;;;;;;;6213111;23;20083;-78
2022/01/12 11:40:54;;;;;;;20.52;7.97;;;;;;;;;;6212454;23;20016;-81
2022/01/12 11:43:38;;;;;;;11.23;6.65;;;;;;;;;;6213299;23;20008;-77
2022/01/12 11:46:23;;;;;;;13.48;7.55;;;;;;;;;;6213157;23;20008;-77
2022/01/12 11:48:50;;;;;;;10.23;6.78;;;;;;;;;;6213136;23;20076;-79
2022/01/12 11:51:17;;;;;;;17.00;7.25;;;;;;;;;;6212937;23;20063;-81
2022/01/12 11:53:44;;;;;;;11.45;6.70;;;;;;;;;;6213019;23;20007;-78
2022/01/12 11:56:12;;;;;;;10.27;6.45;;;;;;;;;;6213644;23;20138;-77
2022/01/12 11:58:49;;;;;;;13.52;7.95;;;;;;;;;;6213003;23;20004;-78
2022/01/12 12:01:15;;;;;;;9.65;6.53;;;;;;;;;;6210836;23;20001;-78
2022/01/12 12:03:41;;;;;;;11.23;7.97;;;;;;;;;;6212101;23;20094;-77
2022/01/12 12:06:28;;;;;;;14.50;7.70;;;;;;;;;;6212792;23;20012;-78
2022/01/12 12:09:18;;;;;;;15.80;7.90;;;;;;;;;;6210272;23;20364;-76
2022/01/12 12:11:51;;;;;;;11.82;6.88;;;;;;;;;;6212273;23;20082;-77
2022/01/12 12:14:18;;;;;;;9.55;6.47;;;;;;;;;;6212174;23;20413;-77
2022/01/12 12:16:44;;;;;;;12.40;7.32;;;;;;;;;;6210965;23;20012;-77
2022/01/12 12:40:40;;;;;;;14.90;8.95;;;;;;;;;;6151923;23;20287;-75
2022/01/12 12:43:16;;;;;;;;;;;;;;;;;;;;;
2022/01/12 12:45:46;;;;;;;13.25;8.30;;;;;;;;;;6146721;23;20100;-79
2022/01/12 12:48:16;;;;;;;9.98;7.05;;;;;;;;;;6153589;23;20440;-77
2022/01/12 12:53:35;;;;;;;12.23;7.55;;;;;;;;;;6152491;23;20617;-79
2022/01/12 12:56:02;;;;;;;12.73;7.65;;;;;;;;;;6127715;23;20006;-78
2022/01/12 12:58:50;;;;;;;14.93;9.57;;;;;;;;;;6153836;23;20008;-78
2022/01/12 13:01:17;;;;;;;15.57;8.70;;;;;;;;;;6155884;23;20009;-77
2022/01/12 13:03:50;;;;;;;12.98;7.75;;;;;;;;;;6128799;23;20468;-81
2022/01/12 13:06:27;;;;;;;14.32;8.88;;;;;;;;;;6156095;23;20429;-77
2022/01/12 13:08:54;;;;;;;11.52;6.97;;;;;;;;;;6156098;23;20013;-80
2022/01/12 13:11:27;;;;;;;17.02;10.63;;;;;;;;;;6155636;23;20448;-77
2022/01/12 13:13:57;;;;;;;13.32;8.70;;;;;;;;;;6154970;23;20005;-78
2022/01/12 13:16:26;;;;;;;10.98;7.13;;;;;;;;;;6154557;23;20070;-79
2022/01/12 13:21:06;;;;;;;11.02;7.10;;;;;;;;;;6155112;23;20005;-77
2022/01/12 13:22:22;;;;;;;12.25;7.25;;;;;;;;;;6154891;23;20009;-79
2022/01/12 13:24:48;;;;;;;16.27;9.57;;;;;;;;;;6128909;23;20036;-79
2022/01/12 13:27:15;;;;;;;12.32;8.10;;;;;;;;;;6155724;23;20028;-79
2022/01/12 13:29:50;;;;;;;13.43;8.55;;;;;;;;;;6128466;23;20349;-77
2022/01/12 13:32:17;;;;;;;11.40;7.75;;;;;;;;;;6153959;23;20475;-77
2022/01/12 13:34:54;;;;;;;11.02;7.90;;;;;;;;;;6154999;23;20006;-79
2022/01/12 13:37:20;;;;;;;13.55;8.65;;;;;;;;;;6127206;23;20013;-77
2022/01/12 13:39:48;;;;;;;13.63;9.55;;;;;;;;;;6154182;23;20014;-79
2022/01/12 13:42:14;;;;;;;11.35;8.30;;;;;;;;;;6154789;23;20013;-75
2022/01/12 13:44:43;;;;;;;12.77;8.52;;;;;;;;;;6154290;23;20005;-78
2022/01/12 13:50:12;;;;;;;13.65;9.30;;;;;;;;;;6154760;23;20344;-77
2022/01/12 13:52:39;;;;;;;13.85;9.23;;;;;;;;;;6155601;23;20006;-78
2022/01/12 13:55:13;;;;;;;18.85;12.10;;;;;;;;;;6154434;23;20025;-78
2022/01/12 13:57:40;;;;;;;18.05;11.23;;;;;;;;;;6155051;23;20006;-77
2022/01/12 14:00:10;;;;;;;13.10;8.43;;;;;;;;;;6155067;23;20005;-78
2022/01/12 14:02:46;;;;;;;11.98;7.70;;;;;;;;;;6154902;23;20016;-76
2022/01/12 14:05:46;;;;;;;17.42;12.38;;;;;;;;;;6128903;23;20028;-76
2022/01/12 14:08:16;;;;;;;14.10;9.68;;;;;;;;;;6155638;23;20328;-76
2022/01/12 14:10:51;;;;;;;15.70;11.25;;;;;;;;;;6154633;23;20009;-75
2022/01/12 14:13:18;;;;;;;12.77;9.10;;;;;;;;;;6155389;23;20025;-75
2022/01/12 14:15:46;;;;;;;16.70;10.18;;;;;;;;;;6154823;23;20012;-75
2022/01/12 14:18:19;;;;;;;13.60;9.20;;;;;;;;;;6154882;23;20444;-76
2022/01/12 14:20:46;;;;;;;16.55;10.68;;;;;;;;;;6155177;23;20012;-76
2022/01/12 14:23:12;;;;;;;16.77;10.45;;;;;;;;;;6155217;23;20002;-75
2022/01/12 14:28:43;;;;;;;15.95;10.85;;;;;;;;;;6154637;23;20027;-76
2022/01/12 14:34:14;;;;;;;18.67;11.52;;;;;;;;;;6155515;23;20096;-79
2022/01/12 14:36:43;;;;;;;13.77;8.90;;;;;;;;;;6130059;23;20006;-79
2022/01/12 14:39:09;;;;;;;21.13;12.35;;;;;;;;;;6154536;23;20005;-80
2022/01/12 14:41:38;;;;;;;13.43;9.73;;;;;;;;;;6154735;23;20017;-78
2022/01/12 14:44:04;;;;;;;20.38;13.13;;;;;;;;;;6155086;23;20012;-78
2022/01/12 14:46:37;;;;;;;17.02;10.98;;;;;;;;;;6154699;23;20497;-79
2022/01/12 14:49:06;;;;;;;18.92;11.25;;;;;;;;;;6155150;23;20024;-78
2022/01/12 14:51:32;;;;;;;24.45;15.45;;;;;;;;;;6155028;23;20492;-77
2022/01/12 14:53:59;;;;;;;14.20;9.10;;;;;;;;;;6154591;23;20480;-78
2022/01/12 14:56:25;;;;;;;24.88;14.52;;;;;;;;;;6129269;23;20328;-78
2022/01/12 14:58:51;;;;;;;18.17;12.57;;;;;;;;;;6155315;23;20005;-77
2022/01/12 15:01:17;;;;;;;14.27;8.55;;;;;;;;;;6155171;23;20365;-75
2022/01/12 15:03:44;;;;;;;14.55;8.75;;;;;;;;;;6155043;23;20099;-79
2022/01/12 15:06:10;;;;;;;15.20;10.23;;;;;;;;;;6155251;23;20017;-77
2022/01/12 15:08:36;;;;;;;18.38;11.85;;;;;;;;;;6154797;23;20005;-77
2022/01/12 15:11:02;;;;;;;21.30;13.65;;;;;;;;;;6154764;23;20065;-76
2022/01/12 15:16:16;;;;;;;13.35;8.73;;;;;;;;;;6155102;23;20110;-77
2022/01/12 15:18:42;;;;;;;13.43;8.43;;;;;;;;;;6155106;23;20369;-78
2022/01/12 15:21:08;;;;;;;20.20;9.88;;;;;;;;;;6154519;23;20473;-78
2022/01/12 15:23:36;;;;;;;15.95;11.00;;;;;;;;;;6154695;23;20017;-77
2022/01/12 15:26:03;;;;;;;14.77;10.48;;;;;;;;;;6154794;23;20016;-76
2022/01/12 15:28:31;;;;;;;14.43;9.27;;;;;;;;;;6155043;23;20044;-78
2022/01/12 15:30:57;;;;;;;13.73;9.32;;;;;;;;;;6155384;23;20036;-78
2022/01/12 15:33:24;;;;;;;15.00;9.45;;;;;;;;;;6155023;23;20325;-77
2022/01/12 15:35:53;;;;;;;24.75;14.20;;;;;;;;;;6154968;23;20080;-77
2022/01/12 15:38:21;;;;;;;18.77;11.65;;;;;;;;;;6154720;23;20009;-79
2022/01/12 15:40:48;;;;;;;13.75;9.27;;;;;;;;;;6154567;23;20042;-77
2022/01/12 15:43:14;;;;;;;18.88;10.48;;;;;;;;;;6154337;23;20433;-77
2022/01/12 15:45:40;;;;;;;17.20;11.25;;;;;;;;;;6154952;23;20009;-78
2022/01/12 15:48:12;;;;;;;21.23;14.02;;;;;;;;;;6152397;23;20009;-76
2022/01/12 15:50:39;;;;;;;16.10;9.68;;;;;;;;;;6155063;23;20497;-76
2022/01/12 15:53:05;;;;;;;22.17;11.35;;;;;;;;;;6129038;23;20014;-77
2022/01/12 15:55:32;;;;;;;17.20;12.10;;;;;;;;;;6154696;23;20329;-78
2022/01/12 15:57:59;;;;;;;18.60;12.23;;;;;;;;;;6154878;23;20002;-76
2022/01/12 16:00:26;;;;;;;16.42;11.43;;;;;;;;;;6155309;23;20088;-78
2022/01/12 16:02:52;;;;;;;16.50;10.75;;;;;;;;;;6154374;23;20061;-77
2022/01/12 16:05:56;;;;;;;15.00;9.18;;;;;;;;;;6154681;23;20005;-80
2022/01/12 16:08:22;;;;;;;13.65;8.55;;;;;;;;;;6154491;23;20079;-78
2022/01/12 16:10:48;;;;;;;14.52;10.00;;;;;;;;;;6154996;23;20010;-77
2022/01/12 16:13:17;;;;;;;14.25;9.98;;;;;;;;;;6154769;23;20393;-78
2022/01/12 16:15:43;;;;;;;17.52;11.93;;;;;;;;;;6128501;23;20005;-77
2022/01/12 16:18:09;;;;;;;17.33;10.48;;;;;;;;;;6154516;23;20017;-79
2022/01/12 16:20:35;;;;;;;16.67;11.38;;;;;;;;;;6154759;23;20006;-78
2022/01/12 16:23:04;;;;;;;17.17;11.05;;;;;;;;;;6128574;23;20348;-78
2022/01/12 16:25:31;;;;;;;14.40;10.40;;;;;;;;;;6128270;23;20016;-76
2022/01/12 16:27:57;;;;;;;14.98;8.30;;;;;;;;;;6154672;23;20061;-78
2022/01/12 16:30:41;;;;;;;20.10;12.02;;;;;;;;;;6153789;23;20016;-77
2022/01/12 16:33:08;;;;;;;16.48;9.38;;;;;;;;;;6154547;23;20370;-77
2022/01/12 16:35:34;;;;;;;22.52;12.60;;;;;;;;;;6156444;23;19998;-78
2022/01/12 16:38:00;;;;;;;17.98;10.60;;;;;;;;;;6156459;23;20081;-76
2022/01/12 16:40:29;;;;;;;21.83;12.50;;;;;;;;;;6155983;23;20433;-79
2022/01/12 16:45:58;;;;;;;12.20;7.95;;;;;;;;;;6155990;23;20017;-78
2022/01/12 16:51:28;;;;;;;16.67;10.75;;;;;;;;;;6155815;23;20024;-76
2022/01/12 16:53:54;;;;;;;27.92;17.42;;;;;;;;;;6156346;23;20452;-78
2022/01/12 16:56:20;;;;;;;20.38;13.45;;;;;;;;;;6155744;23;20001;-73
2022/01/12 16:58:47;;;;;;;17.70;10.13;;;;;;;;;;6156040;23;20035;-77
2022/01/12 17:01:14;;;;;;;20.42;12.75;;;;;;;;;;6156473;23;20178;-78
2022/01/12 17:03:42;;;;;;;18.17;11.07;;;;;;;;;;6156183;23;20080;-79
2022/01/12 17:06:09;;;;;;;13.35;9.15;;;;;;;;;;6130262;23;20008;-75
2022/01/12 17:08:36;;;;;;;17.00;9.75;;;;;;;;;;6155213;23;20014;-76
2022/01/12 17:11:02;;;;;;;14.93;8.75;;;;;;;;;;6156252;23;20080;-75
2022/01/12 17:13:29;;;;;;;20.98;12.65;;;;;;;;;;6155921;23;20006;-76
2022/01/12 17:15:55;;;;;;;18.27;10.35;;;;;;;;;;6155919;23;20008;-78